Weather at Chimoio Airport

Public forecast

Using degrees Celsius for public forecast. Weather courtesy of forecast.io.

Current aviation weather report (METAR) for Chimoio Airport

Retrieved 2021/01/23 01:00 UTC (5 minutes ago):

FQCH 230100Z 31008KT 8000 RA BKN010 BKN015 FEW020CB 20/20 Q1006 RMK CB TO NE

Aviation forecast (TAF) for Chimoio Airport

Retrieved 2021-01-23 00:00 UTC (1 hour ago):

TAF FQCH 222200Z 2300/2400 30020KT 8000 -RA SCT010 BKN015 FEW020CB TX23/2313Z TN20/2303Z BECMG 2306/2308 25018KT